Time;durP1;ratioP1;P1;durP2;ratioP2;P2;SDS_P1;SDS_P2;PMS_P1;PMS_P2;Temp;Humidity;BMP_temperature;BMP_pressure;BME280_temperature;BME280_humidity;BME280_pressure;Samples;Min_cycle;Max_cycle;Signal;HPM_P1;HPM_P2
2023/08/06 00:02:11;;;;;;;3.85;2.50;;;;;;;17.73;78.74;98291.59;7173503;40;20341;31
2023/08/06 00:07:47;;;;;;;3.85;2.20;;;;;;;17.79;78.25;98286.06;7136944;40;20317;31
2023/08/06 00:13:07;;;;;;;5.00;2.20;;;;;;;17.88;77.45;98287.38;7157959;40;20263;31
2023/08/06 00:18:27;;;;;;;3.77;2.33;;;;;;;17.92;77.06;98283.09;7202158;40;20269;31
2023/08/06 00:29:07;;;;;;;4.90;2.40;;;;;;;17.73;78.21;98277.97;7269813;40;20257;31
2023/08/06 00:34:27;;;;;;;7.00;2.30;;;;;;;17.77;78.15;98279.19;7208267;40;20271;31
2023/08/06 00:39:59;;;;;;;5.17;2.30;;;;;;;17.73;78.22;98269.78;7225480;40;20449;31
2023/08/06 00:45:32;;;;;;;3.70;2.40;;;;;;;17.71;78.44;98270.03;7255256;40;20261;31
2023/08/06 00:50:49;;;;;;;2.90;2.50;;;;;;;17.70;79.04;98267.53;7262547;40;20342;31
2023/08/06 00:56:24;;;;;;;2.90;2.40;;;;;;;17.56;78.89;98254.09;7315392;39;20436;31
2023/08/06 01:01:57;;;;;;;4.10;2.53;;;;;;;17.57;79.54;98246.75;7208757;40;20497;31
2023/08/06 01:07:30;;;;;;;3.00;2.53;;;;;;;17.53;79.59;98249.13;7204092;40;20230;31
2023/08/06 01:13:03;;;;;;;4.13;2.20;;;;;;;17.49;79.73;98247.09;7180753;40;20261;31
2023/08/06 01:18:41;;;;;;;3.47;2.10;;;;;;;17.38;80.29;98231.56;7166574;40;20244;31
2023/08/06 01:24:12;;;;;;;5.90;2.47;;;;;;;17.36;80.88;98229.09;7185617;40;20335;31
2023/08/06 01:29:44;;;;;;;3.77;2.60;;;;;;;17.37;80.36;98213.56;7164329;40;20249;31
2023/08/06 01:35:16;;;;;;;4.67;2.37;;;;;;;17.24;80.45;98217.34;7123603;40;20288;31
2023/08/06 01:40:49;;;;;;;3.77;2.40;;;;;;;17.29;80.69;98217.44;7195508;40;20261;31
2023/08/06 01:46:24;;;;;;;3.70;2.25;;;;;;;17.25;81.11;98216.25;7193039;40;20274;31
2023/08/06 01:51:41;;;;;;;3.23;2.37;;;;;;;17.18;82.06;98217.41;7226207;40;20265;31
2023/08/06 01:57:14;;;;;;;3.10;2.40;;;;;;;17.12;81.91;98206.41;7207025;40;20280;31
2023/08/06 02:02:50;;;;;;;3.65;2.33;;;;;;;17.15;82.77;98210.56;7212254;40;20282;31
2023/08/06 02:08:23;;;;;;;3.97;2.40;;;;;;;17.13;82.63;98213.50;7167902;40;20246;31
2023/08/06 02:13:56;;;;;;;4.53;2.70;;;;;;;17.12;82.38;98211.00;7233325;40;20258;31
2023/08/06 02:19:28;;;;;;;4.43;2.40;;;;;;;16.96;82.48;98196.19;7202929;40;20242;31
2023/08/06 02:25:04;;;;;;;2.60;1.77;;;;;;;16.90;82.05;98193.53;7222350;40;20358;31
2023/08/06 02:30:40;;;;;;;6.83;1.70;;;;;;;16.84;81.93;98198.03;7235552;40;20271;31
2023/08/06 02:36:15;;;;;;;3.13;1.93;;;;;;;16.83;81.48;98196.38;7196654;40;20248;31
2023/08/06 02:41:32;;;;;;;3.70;1.60;;;;;;;16.84;80.92;98192.59;7194010;40;20273;31
2023/08/06 02:47:05;;;;;;;3.97;1.80;;;;;;;16.86;81.45;98187.72;7209516;40;20271;31
2023/08/06 02:52:38;;;;;;;2.67;1.60;;;;;;;16.84;82.14;98192.59;7264415;40;20363;31
2023/08/06 02:57:54;;;;;;;6.00;1.80;;;;;;;16.90;81.54;98180.75;7212259;40;20421;31
2023/08/06 03:03:30;;;;;;;4.70;1.70;;;;;;;16.86;82.25;98174.13;7202072;40;20260;31
2023/08/06 03:08:50;;;;;;;3.47;1.80;;;;;;;16.94;81.16;98171.06;7233054;40;20343;31
2023/08/06 03:14:07;;;;;;;5.05;2.00;;;;;;;16.95;81.43;98180.06;7233755;40;20251;31
2023/08/06 03:19:40;;;;;;;4.00;2.07;;;;;;;16.84;82.29;98169.97;7221278;40;20464;31
2023/08/06 03:25:15;;;;;;;4.57;1.40;;;;;;;16.70;82.51;98171.22;7153611;40;20258;31
2023/08/06 03:30:32;;;;;;;3.37;1.50;;;;;;;16.54;82.28;98168.03;7213110;40;20250;31
2023/08/06 03:36:08;;;;;;;1.90;1.30;;;;;;;16.39;82.84;98177.69;7034159;40;21415;31
2023/08/06 03:41:40;;;;;;;1.60;1.10;;;;;;;16.36;83.85;98162.66;7185386;40;20253;31
2023/08/06 03:47:01;;;;;;;2.77;1.23;;;;;;;16.34;82.82;98175.62;7215320;40;20388;31
2023/08/06 03:52:33;;;;;;;1.75;1.05;;;;;;;16.22;84.01;98156.56;7214639;40;20267;31
2023/08/06 03:58:05;;;;;;;2.20;1.20;;;;;;;16.19;83.48;98161.63;7213307;40;20361;31
2023/08/06 04:03:37;;;;;;;1.70;0.90;;;;;;;16.20;84.45;98158.66;7184912;40;20257;31
2023/08/06 04:09:10;;;;;;;4.03;1.67;;;;;;;16.21;84.04;98151.34;7187310;40;20325;31
2023/08/06 04:14:42;;;;;;;3.53;1.10;;;;;;;16.17;83.41;98158.28;7176522;40;20274;31
2023/08/06 04:20:03;;;;;;;1.85;1.20;;;;;;;16.06;83.35;98151.72;7213925;40;20327;31
2023/08/06 04:25:36;;;;;;;1.37;0.90;;;;;;;16.03;84.58;98164.94;7241364;39;20262;31
2023/08/06 04:31:08;;;;;;;3.20;1.20;;;;;;;15.97;84.32;98157.69;7223437;40;20277;31
2023/08/06 04:36:43;;;;;;;2.17;1.27;;;;;;;15.97;84.09;98165.84;7192252;40;20278;31
2023/08/06 04:47:25;;;;;;;2.40;1.20;;;;;;;15.94;84.94;98169.00;7270867;39;20290;31
2023/08/06 04:52:55;;;;;;;1.70;1.30;;;;;;;15.90;85.05;98173.22;7261978;40;20260;31
2023/08/06 04:58:16;;;;;;;1.90;1.10;;;;;;;15.81;86.54;98177.31;7200709;40;20263;31
2023/08/06 05:08:56;;;;;;;2.30;1.10;;;;;;;15.83;86.96;98186.91;7217620;40;20361;31
2023/08/06 05:19:21;;;;;;;3.45;1.20;;;;;;;15.74;86.14;98189.09;7217042;40;20283;31
2023/08/06 05:24:56;;;;;;;1.97;1.00;;;;;;;15.76;87.01;98189.69;7235264;40;21992;31
2023/08/06 05:30:14;;;;;;;1.33;0.97;;;;;;;15.76;87.28;98194.28;7204075;40;20255;31
2023/08/06 05:35:31;;;;;;;1.67;0.90;;;;;;;15.76;87.10;98186.97;7256373;40;20279;31
2023/08/06 05:41:03;;;;;;;1.27;0.80;;;;;;;15.74;87.18;98182.81;7254790;40;20237;31
2023/08/06 05:46:34;;;;;;;2.70;1.10;;;;;;;15.83;87.40;98192.34;7241246;40;20255;31
2023/08/06 05:52:08;;;;;;;1.90;0.90;;;;;;;15.75;87.03;98184.47;7295765;40;20275;31
2023/08/06 05:57:40;;;;;;;0.93;0.83;;;;;;;15.73;87.56;98181.97;7293836;39;20396;31
2023/08/06 06:02:57;;;;;;;1.10;0.90;;;;;;;15.77;87.93;98177.75;7178990;40;20239;31
2023/08/06 06:08:14;;;;;;;2.33;0.97;;;;;;;15.85;87.60;98183.94;7156765;40;20258;31
2023/08/06 06:13:47;;;;;;;1.03;0.90;;;;;;;15.90;86.38;98187.66;7168820;40;20246;31
2023/08/06 06:19:19;;;;;;;1.00;0.90;;;;;;;15.92;87.09;98195.59;7176219;40;20336;31
2023/08/06 06:29:57;;;;;;;0.80;0.80;;;;;;;15.85;88.64;98197.53;7272879;40;20294;31
2023/08/06 06:40:36;;;;;;;1.67;0.70;;;;;;;15.93;88.14;98200.78;7278544;39;20282;31
2023/08/06 06:51:16;;;;;;;0.70;0.70;;;;;;;15.97;88.12;98207.44;7271637;40;20492;31
2023/08/06 06:56:48;;;;;;;0.80;0.80;;;;;;;16.14;88.77;98213.97;7235979;40;20461;31
2023/08/06 07:02:20;;;;;;;1.10;0.90;;;;;;;16.09;87.80;98221.12;7203591;40;20260;31
2023/08/06 07:07:56;;;;;;;0.60;0.60;;;;;;;16.16;88.30;98220.00;7170441;40;20560;31
2023/08/06 07:13:31;;;;;;;0.70;0.70;;;;;;;16.22;88.95;98208.22;7180033;40;20265;31
2023/08/06 07:24:08;;;;;;;0.67;0.67;;;;;;;16.26;88.86;98215.91;7198227;40;20283;31
2023/08/06 07:34:29;;;;;;;1.00;0.73;;;;;;;16.35;88.26;98236.31;7269334;39;20282;31
2023/08/06 07:45:08;;;;;;;0.60;0.60;;;;;;;16.29;89.04;98237.19;7354436;39;21127;31
2023/08/06 07:55:32;;;;;;;0.70;0.70;;;;;;;16.46;87.45;98233.66;7289143;39;20282;31
2023/08/06 08:06:08;;;;;;;0.70;0.70;;;;;;;16.44;87.76;98238.50;7273458;40;21149;31
2023/08/06 08:11:43;;;;;;;0.67;0.67;;;;;;;16.41;88.59;98241.66;7233623;40;20273;31
2023/08/06 08:17:00;;;;;;;0.67;0.67;;;;;;;16.43;89.12;98244.16;7201704;40;20255;31
2023/08/06 08:22:36;;;;;;;0.60;0.60;;;;;;;16.42;89.82;98256.09;7233150;40;20238;31
2023/08/06 08:28:08;;;;;;;0.93;0.83;;;;;;;16.60;87.99;98237.91;7235081;40;20354;31
2023/08/06 08:33:25;;;;;;;0.70;0.70;;;;;;;16.94;87.84;98219.22;7231064;40;20250;31
2023/08/06 08:38:58;;;;;;;1.87;0.70;;;;;;;17.15;86.51;98209.72;7230187;40;20272;31
2023/08/06 08:44:32;;;;;;;1.63;0.77;;;;;;;17.31;86.03;98222.66;7199986;40;20335;31
2023/08/06 08:50:02;;;;;;;0.60;0.60;;;;;;;17.34;84.84;98225.75;7186897;40;20253;31
2023/08/06 08:55:35;;;;;;;0.60;0.60;;;;;;;17.41;83.82;98226.50;7192663;40;20253;31
2023/08/06 09:01:07;;;;;;;0.90;0.80;;;;;;;17.30;83.35;98216.38;7235947;40;20246;31
2023/08/06 09:06:42;;;;;;;0.60;0.60;;;;;;;17.19;83.26;98230.81;7182822;40;20407;31
2023/08/06 09:12:13;;;;;;;0.80;0.67;;;;;;;17.14;83.34;98247.03;7204996;40;20314;31
2023/08/06 09:17:45;;;;;;;0.60;0.60;;;;;;;16.96;84.44;98256.06;7212274;40;20322;31
2023/08/06 09:28:25;;;;;;;0.77;0.70;;;;;;;16.82;85.28;98265.47;7212705;40;20293;31
2023/08/06 09:34:00;;;;;;;0.60;0.60;;;;;;;16.90;85.41;98261.59;7214161;40;22171;31
2023/08/06 09:44:40;;;;;;;1.20;0.68;;;;;;;17.03;84.61;98280.47;7296001;40;20349;31
2023/08/06 09:50:00;;;;;;;0.80;0.70;;;;;;;17.15;84.63;98280.53;7220051;40;20278;31
2023/08/06 09:55:32;;;;;;;1.17;0.87;;;;;;;17.18;84.05;98280.06;7210607;40;20251;31
2023/08/06 10:01:05;;;;;;;0.83;0.83;;;;;;;17.24;84.27;98282.69;7224283;40;20274;31
2023/08/06 10:06:40;;;;;;;1.00;0.90;;;;;;;17.17;84.51;98306.47;7179189;40;20278;31
2023/08/06 10:12:18;;;;;;;1.63;0.80;;;;;;;17.17;84.49;98316.50;7153604;40;20305;31
2023/08/06 10:17:51;;;;;;;1.00;0.90;;;;;;;17.16;84.35;98307.50;7119051;40;20323;31
2023/08/06 10:23:26;;;;;;;1.30;1.10;;;;;;;17.19;82.80;98312.53;7140646;40;20285;31
2023/08/06 10:29:01;;;;;;;1.75;1.40;;;;;;;17.08;83.75;98324.19;7222199;40;20257;31
2023/08/06 10:34:34;;;;;;;1.70;1.20;;;;;;;17.02;84.07;98331.41;6968511;40;21377;31
2023/08/06 10:40:03;;;;;;;2.03;1.30;;;;;;;16.99;84.24;98353.63;7193426;40;20254;31
2023/08/06 10:45:24;;;;;;;2.37;1.50;;;;;;;16.88;85.13;98351.66;7226381;40;20255;31
2023/08/06 10:50:52;;;;;;;1.50;1.40;;;;;;;16.81;84.60;98369.94;7198301;40;20334;31
2023/08/06 10:56:25;;;;;;;1.50;1.23;;;;;;;16.79;84.52;98374.81;7151302;40;20246;31
2023/08/06 11:01:56;;;;;;;2.70;1.50;;;;;;;16.78;83.76;98384.03;7204230;40;20349;31
2023/08/06 11:07:30;;;;;;;1.97;1.70;;;;;;;16.83;83.01;98386.91;7228022;40;20379;31
2023/08/06 11:12:48;;;;;;;3.07;1.70;;;;;;;16.88;84.48;98394.38;7171954;40;20267;31
2023/08/06 11:18:19;;;;;;;1.60;1.50;;;;;;;16.85;83.27;98411.19;7144127;40;20263;31
2023/08/06 11:23:52;;;;;;;2.53;1.47;;;;;;;16.88;83.04;98410.72;7187335;40;20346;31
2023/08/06 11:29:13;;;;;;;4.73;1.83;;;;;;;16.99;81.85;98426.28;7253597;40;20262;31
2023/08/06 11:34:47;;;;;;;2.17;1.70;;;;;;;17.09;81.14;98423.87;7273206;40;20331;31
2023/08/06 11:40:20;;;;;;;2.30;1.80;;;;;;;17.15;82.04;98425.69;7225361;40;20240;31
2023/08/06 11:45:54;;;;;;;2.37;1.63;;;;;;;17.13;82.26;98435.97;7212586;40;20266;31
2023/08/06 11:51:27;;;;;;;2.67;1.80;;;;;;;16.94;81.93;98451.47;7193121;40;20293;31
2023/08/06 11:57:02;;;;;;;2.07;1.80;;;;;;;16.76;82.96;98447.91;7169387;40;20323;31
2023/08/06 12:02:37;;;;;;;5.05;1.80;;;;;;;16.65;83.47;98446.75;7169195;40;22159;31
2023/08/06 12:08:11;;;;;;;3.03;2.20;;;;;;;16.71;82.95;98447.75;7167227;40;22206;31
2023/08/06 12:13:44;;;;;;;3.90;2.10;;;;;;;16.93;83.18;98449.81;7146112;40;20263;31
2023/08/06 12:19:02;;;;;;;2.43;2.00;;;;;;;17.15;82.01;98450.22;7187040;40;20266;31
2023/08/06 12:24:20;;;;;;;2.70;2.00;;;;;;;17.27;81.23;98463.91;7233036;40;20262;31
2023/08/06 12:29:55;;;;;;;2.57;1.80;;;;;;;17.39;79.39;98479.25;7204615;40;20260;31
2023/08/06 12:35:30;;;;;;;2.47;1.70;;;;;;;17.30;79.98;98496.94;7158087;40;20259;31
2023/08/06 12:41:02;;;;;;;3.13;1.50;;;;;;;17.12;80.18;98495.06;7157689;40;20265;31
2023/08/06 12:46:50;;;;;;;2.87;1.40;;;;;;;17.12;79.81;98489.59;7182376;40;20385;31
2023/08/06 12:57:11;;;;;;;1.70;1.23;;;;;;;17.18;80.07;98497.94;7221859;40;20269;31
2023/08/06 13:02:47;;;;;;;1.40;1.20;;;;;;;17.21;80.50;98520.09;7244018;40;21381;31
2023/08/06 13:08:07;;;;;;;1.87;1.30;;;;;;;17.21;81.29;98525.53;7227114;40;20293;31
2023/08/06 13:13:26;;;;;;;1.10;1.00;;;;;;;17.23;81.89;98538.94;7253906;40;20318;31
2023/08/06 13:18:57;;;;;;;1.40;1.10;;;;;;;17.16;81.45;98516.41;7235521;40;20345;31
2023/08/06 13:24:17;;;;;;;1.30;1.10;;;;;;;17.28;80.91;98531.78;7262307;40;20260;31
2023/08/06 13:29:49;;;;;;;3.10;1.30;;;;;;;17.26;80.17;98522.97;7259499;40;20262;31
2023/08/06 13:35:22;;;;;;;1.20;1.10;;;;;;;17.25;80.19;98523.19;7285539;39;20546;31
2023/08/06 13:40:54;;;;;;;1.40;1.20;;;;;;;17.34;80.70;98519.97;7244292;40;20358;31
2023/08/06 13:46:29;;;;;;;1.27;1.10;;;;;;;17.43;80.32;98513.16;7227476;40;20273;31
2023/08/06 13:52:02;;;;;;;1.23;1.13;;;;;;;17.47;79.18;98524.41;7188900;40;20263;31
2023/08/06 13:57:19;;;;;;;2.10;1.30;;;;;;;17.57;79.33;98536.47;7186028;40;20255;31
2023/08/06 14:02:36;;;;;;;5.10;1.65;;;;;;;17.55;78.61;98535.84;7224537;40;20284;31
2023/08/06 14:08:13;;;;;;;2.53;1.40;;;;;;;17.59;79.70;98544.47;7214088;40;20390;31
2023/08/06 14:13:47;;;;;;;1.80;1.20;;;;;;;17.55;79.66;98557.66;7209527;40;20253;31
2023/08/06 14:19:07;;;;;;;1.90;1.20;;;;;;;17.45;80.36;98551.91;7205091;40;20285;31
2023/08/06 14:24:40;;;;;;;1.70;1.20;;;;;;;17.49;80.17;98557.75;7212531;40;20248;31
2023/08/06 14:29:57;;;;;;;1.73;1.30;;;;;;;17.69;79.12;98566.53;7240651;40;20369;31
2023/08/06 14:40:37;;;;;;;2.40;1.20;;;;;;;17.57;78.82;98573.78;7354297;39;20263;31
2023/08/06 14:51:13;;;;;;;3.45;1.10;;;;;;;17.47;80.29;98608.88;7311375;39;20257;31
2023/08/06 14:56:46;;;;;;;2.37;1.40;;;;;;;17.33;80.65;98627.25;7292783;40;20252;31
2023/08/06 15:02:04;;;;;;;1.57;1.20;;;;;;;17.22;81.31;98657.97;7240098;40;20257;31
2023/08/06 15:07:39;;;;;;;2.85;1.80;;;;;;;17.22;81.92;98648.94;7254199;40;21249;31
2023/08/06 15:13:12;;;;;;;2.27;1.40;;;;;;;17.22;81.79;98660.69;7223454;40;20254;31
2023/08/06 15:18:29;;;;;;;2.57;1.47;;;;;;;17.22;82.56;98674.31;7239765;40;20288;31
2023/08/06 15:24:01;;;;;;;3.00;1.35;;;;;;;17.20;82.18;98679.12;7262727;40;20233;31
2023/08/06 15:29:34;;;;;;;1.70;1.20;;;;;;;17.03;80.53;98675.28;7236562;40;21316;31
2023/08/06 15:35:06;;;;;;;1.40;1.30;;;;;;;17.09;81.07;98683.41;7182616;40;20287;31
2023/08/06 15:40:38;;;;;;;1.23;1.13;;;;;;;17.09;80.57;98691.59;7138344;40;20382;31
2023/08/06 15:46:15;;;;;;;1.33;1.20;;;;;;;17.13;80.33;98690.09;7135090;40;20285;31
2023/08/06 15:51:49;;;;;;;2.13;1.23;;;;;;;17.17;79.72;98714.16;7140674;40;20402;31
2023/08/06 15:57:24;;;;;;;1.10;1.00;;;;;;;17.16;80.72;98704.34;7193120;40;20374;31
2023/08/06 16:08:06;;;;;;;1.30;1.17;;;;;;;17.23;80.88;98740.50;7185846;40;20433;31
2023/08/06 16:18:45;;;;;;;2.33;1.30;;;;;;;16.96;81.78;98750.75;7194550;40;20597;31
2023/08/06 16:29:23;;;;;;;2.40;1.50;;;;;;;16.89;81.16;98739.91;7254653;40;21168;31
2023/08/06 16:34:44;;;;;;;2.35;1.55;;;;;;;16.98;80.67;98741.28;7295286;39;20356;31
2023/08/06 16:45:22;;;;;;;1.90;1.60;;;;;;;16.80;80.32;98746.66;7295831;40;20248;31
2023/08/06 16:50:40;;;;;;;3.13;1.60;;;;;;;16.77;80.78;98740.78;7219966;40;20253;31
2023/08/06 16:56:11;;;;;;;3.05;1.40;;;;;;;16.75;80.00;98756.50;7247117;40;20260;31
2023/08/06 17:01:44;;;;;;;3.10;1.40;;;;;;;16.74;81.81;98763.84;7315118;39;20394;31
2023/08/06 17:07:02;;;;;;;1.90;1.50;;;;;;;16.68;82.12;98776.41;7004168;40;21338;31
2023/08/06 17:17:39;;;;;;;1.50;1.30;;;;;;;16.54;81.67;98771.25;7234388;40;20274;31
2023/08/06 17:22:57;;;;;;;2.40;1.80;;;;;;;16.46;80.95;98777.72;7246445;40;20261;31
2023/08/06 17:28:17;;;;;;;3.33;1.80;;;;;;;16.44;81.41;98774.41;7238853;40;20369;31
2023/08/06 17:33:49;;;;;;;2.20;1.53;;;;;;;16.32;80.82;98778.00;7295564;39;20252;31
2023/08/06 17:39:21;;;;;;;3.70;1.87;;;;;;;16.30;80.56;98780.09;7240445;40;20245;31
2023/08/06 17:44:53;;;;;;;3.10;1.73;;;;;;;16.23;79.96;98778.22;7253649;40;20269;31
2023/08/06 17:50:26;;;;;;;5.65;1.90;;;;;;;16.17;79.42;98789.97;7192380;40;20344;31
2023/08/06 17:55:44;;;;;;;2.70;1.70;;;;;;;16.22;79.31;98778.44;7165039;40;20364;31
2023/08/06 18:01:01;;;;;;;2.80;1.80;;;;;;;16.20;78.82;98778.66;7161834;40;20248;31
2023/08/06 18:06:33;;;;;;;2.15;1.75;;;;;;;16.07;78.52;98786.81;7243404;40;20325;31
2023/08/06 18:11:54;;;;;;;5.97;1.70;;;;;;;16.12;78.92;98794.34;7251885;40;20351;31
2023/08/06 18:17:25;;;;;;;3.90;1.80;;;;;;;16.10;77.79;98788.31;7250746;39;20269;31
2023/08/06 18:22:58;;;;;;;4.13;1.60;;;;;;;16.03;77.75;98799.19;7217793;40;20265;31
2023/08/06 18:28:33;;;;;;;3.10;1.80;;;;;;;15.98;77.58;98800.84;7223277;40;20296;31
2023/08/06 18:39:11;;;;;;;3.70;1.70;;;;;;;15.96;77.50;98819.28;7207967;40;20693;31
2023/08/06 18:44:31;;;;;;;2.10;1.80;;;;;;;15.96;77.59;98819.28;7268743;39;20391;31
2023/08/06 18:50:03;;;;;;;3.22;1.90;;;;;;;15.95;78.47;98820.31;7228461;40;21537;31
2023/08/06 18:55:36;;;;;;;2.67;1.70;;;;;;;15.87;78.92;98837.66;7172817;40;20262;31
2023/08/06 19:01:11;;;;;;;3.00;1.90;;;;;;;15.84;79.22;98834.53;7184080;40;20297;31
2023/08/06 19:11:51;;;;;;;3.13;1.63;;;;;;;15.63;79.74;98851.84;7268191;39;20450;31
2023/08/06 19:17:08;;;;;;;3.63;1.70;;;;;;;15.66;80.07;98862.34;7263031;40;20260;31
2023/08/06 19:22:25;;;;;;;2.80;1.90;;;;;;;15.66;80.51;98857.75;7255037;40;20380;31
2023/08/06 19:27:58;;;;;;;3.40;1.70;;;;;;;15.57;80.95;98860.84;7254373;40;20258;31
2023/08/06 19:33:18;;;;;;;3.97;1.67;;;;;;;15.55;80.73;98876.50;7252255;40;20272;31
2023/08/06 19:43:59;;;;;;;4.04;1.64;;;;;;;15.36;81.25;98904.44;7291335;39;20345;31
2023/08/06 19:49:31;;;;;;;2.73;1.23;;;;;;;15.24;81.61;98886.00;7259327;40;20257;31
2023/08/06 19:54:51;;;;;;;2.30;1.53;;;;;;;15.12;81.82;98875.94;7248549;40;20257;31
2023/08/06 20:00:41;;;;;;;2.75;1.60;;;;;;;15.06;82.17;98887.63;7253237;40;20342;31
2023/08/06 20:11:21;;;;;;;3.40;1.50;;;;;;;14.92;81.88;98886.72;7238621;40;20261;31
2023/08/06 20:22:01;;;;;;;3.53;1.77;;;;;;;14.80;82.92;98894.59;7207323;40;20294;31
2023/08/06 20:27:33;;;;;;;3.80;1.80;;;;;;;14.79;83.16;98889.38;7222808;40;20359;31
2023/08/06 20:32:53;;;;;;;4.40;1.90;;;;;;;14.83;82.95;98877.91;7195016;40;21327;31
2023/08/06 20:38:29;;;;;;;3.23;1.93;;;;;;;14.84;83.28;98900.47;7196254;40;20381;31
2023/08/06 20:48:53;;;;;;;5.00;1.92;;;;;;;14.77;83.40;98894.16;7206081;40;20314;31
2023/08/06 20:54:29;;;;;;;3.97;1.70;;;;;;;14.68;83.82;98914.38;7200033;40;20278;31
2023/08/06 21:04:51;;;;;;;4.02;1.92;;;;;;;14.70;84.33;98915.81;7251698;40;20284;31
2023/08/06 21:10:10;;;;;;;4.70;1.87;;;;;;;14.70;83.69;98915.00;7243274;40;20304;31
2023/08/06 21:15:46;;;;;;;2.90;1.90;;;;;;;14.71;83.78;98935.66;7247638;40;20260;31
2023/08/06 21:21:18;;;;;;;3.25;1.90;;;;;;;14.71;83.43;98943.78;7234914;40;20246;31
2023/08/06 21:26:35;;;;;;;3.35;1.80;;;;;;;14.69;82.93;98948.59;7217585;40;20262;31
2023/08/06 21:32:07;;;;;;;5.40;2.37;;;;;;;14.67;83.15;98950.66;7218265;40;20250;31
2023/08/06 21:37:39;;;;;;;4.15;1.85;;;;;;;14.72;83.24;98950.91;7216772;40;20310;31
2023/08/06 21:42:59;;;;;;;3.97;1.87;;;;;;;14.65;82.94;98958.19;7224624;40;20247;31
2023/08/06 21:48:32;;;;;;;6.67;2.20;;;;;;;14.63;83.43;98974.63;7261196;40;20257;31
2023/08/06 21:54:04;;;;;;;4.15;1.80;;;;;;;14.60;83.43;98963.34;7232122;40;20263;31
2023/08/06 21:59:36;;;;;;;3.80;1.87;;;;;;;14.62;83.48;98969.41;7245157;40;20245;31
2023/08/06 22:05:09;;;;;;;5.30;2.10;;;;;;;14.59;82.98;98961.66;7242825;40;20257;31
2023/08/06 22:10:41;;;;;;;2.67;1.70;;;;;;;14.59;83.51;98967.94;7256005;40;20261;31
2023/08/06 22:16:16;;;;;;;4.07;1.70;;;;;;;14.64;82.43;98973.59;7306466;39;20326;31
2023/08/06 22:21:49;;;;;;;4.73;1.80;;;;;;;14.62;82.52;98966.69;7275443;39;20273;31
2023/08/06 22:27:21;;;;;;;2.83;1.93;;;;;;;14.58;82.18;98973.56;7253489;40;20282;31
2023/08/06 22:37:59;;;;;;;4.17;1.97;;;;;;;14.51;81.98;98992.50;7248699;40;20257;31
2023/08/06 22:43:34;;;;;;;2.50;1.80;;;;;;;14.52;81.83;98977.91;7175069;40;20329;31
2023/08/06 22:48:51;;;;;;;4.30;1.73;;;;;;;14.52;81.60;98991.47;7200129;40;20449;31
2023/08/06 22:54:24;;;;;;;6.60;1.70;;;;;;;14.49;81.37;98989.13;7281653;39;20365;31
2023/08/06 22:59:44;;;;;;;7.20;2.17;;;;;;;14.51;81.55;98992.50;7182003;40;20439;31
2023/08/06 23:05:19;;;;;;;3.53;1.90;;;;;;;14.50;80.61;99004.38;7172095;40;20415;31
2023/08/06 23:10:50;;;;;;;5.00;1.80;;;;;;;14.50;80.75;98998.09;7154593;40;20267;31
2023/08/06 23:16:12;;;;;;;6.20;1.90;;;;;;;14.53;80.28;99017.53;7233165;40;20439;31
2023/08/06 23:26:51;;;;;;;4.32;2.20;;;;;;;14.51;80.29;99022.34;7232856;40;20278;31
2023/08/06 23:37:27;;;;;;;6.20;2.08;;;;;;;14.37;80.71;99025.97;7234148;40;20314;31
2023/08/06 23:43:03;;;;;;;4.43;1.90;;;;;;;14.41;80.19;99038.94;7192851;40;20344;31
2023/08/06 23:48:38;;;;;;;3.57;2.10;;;;;;;14.47;80.50;99044.62;7207020;40;20276;31
2023/08/06 23:53:56;;;;;;;4.65;1.70;;;;;;;14.43;80.68;99050.44;7137115;40;20243;31
2023/08/06 23:59:28;;;;;;;4.37;2.27;;;;;;;14.35;79.86;99044.25;7133484;40;20243;31
